CST,Max TemperatureF,Mean TemperatureF,Min TemperatureF,Max Dew PointF,MeanDew PointF,Min DewpointF,Max Humidity, Mean Humidity, Min Humidity, Max Sea Level PressureIn, Mean Sea Level PressureIn, Min Sea Level PressureIn, Max VisibilityMiles, Mean VisibilityMiles, Min VisibilityMiles, Max Wind SpeedMPH, Mean Wind SpeedMPH, Max Gust SpeedMPH,PrecipitationIn, CloudCover, Events, WindDirDegrees
2013-2-1,20,9,-3,14,-1,-10,79,71,63,30.46,30.32,30.12,10,9,1,24,11,29,0.01,4,Snow,239
2013-2-2,25,18,11,20,13,8,88,78,67,30.16,30.09,30.00,10,6,2,22,10,26,0.02,7,Snow,269
2013-2-3,24,20,16,18,14,10,92,79,65,30.14,30.04,29.96,10,6,1,24,12,30,0.01,6,Snow,251
2013-2-4,27,19,11,20,16,9,88,78,68,30.02,29.93,29.82,10,8,5,20,10,24,0.00,4,,38
2013-2-5,34,23,12,29,24,9,92,84,75,30.13,29.95,29.85,10,6,3,22,11,26,T,6,Snow,273
2013-2-6,43,30,17,33,26,16,92,80,67,30.21,30.13,30.03,10,7,3,20,9,,T,0,,157
2013-2-7,38,35,31,36,33,27,100,93,85,30.10,29.96,29.88,10,3,1,22,9,25,0.58,8,Rain-Snow,60
2013-2-8,31,29,26,28,22,21,92,84,75,30.39,30.32,30.12,10,9,7,21,9,26,0.00,8,,35
2013-2-9,36,31,25,29,25,21,92,81,70,30.39,30.23,30.03,10,8,4,26,12,32,0.00,5,,146
2013-2-10,49,40,31,45,37,29,100,80,60,30.01,29.64,29.38,10,5,1,37,20,46,0.31,8,Rain,159
2013-2-11,36,32,27,27,23,20,75,71,66,30.12,29.83,29.57,10,10,9,37,27,47,T,8,,273
2013-2-12,36,31,25,26,22,17,85,72,59,30.16,30.06,29.91,10,8,7,23,10,26,0.00,4,,256
2013-2-13,42,34,26,32,28,23,92,78,64,29.90,29.80,29.70,10,8,4,16,8,22,0.00,2,,234
2013-2-14,42,36,30,31,29,25,89,72,55,30.06,29.87,29.68,10,9,5,29,15,38,T,6,Snow,287
2013-2-15,30,24,17,23,14,9,78,66,53,30.28,30.22,30.06,10,10,9,23,14,28,0.00,1,,313
2013-2-16,24,18,11,13,10,6,80,70,59,30.29,30.23,30.16,10,10,10,20,8,26,T,2,,315
2013-2-17,37,24,10,22,14,5,83,66,48,30.22,30.11,29.86,10,10,10,25,14,31,0.00,0,,144
2013-2-18,55,36,17,43,30,11,92,72,51,29.83,29.61,29.51,10,6,0,35,19,44,0.28,5,Fog-Rain-Snow,262
2013-2-19,20,13,6,10,4,-1,76,69,62,30.34,30.01,29.80,10,9,6,38,25,45,T,4,Snow,294
2013-2-20,24,14,3,13,5,-3,80,73,65,30.47,30.41,30.36,10,10,10,14,7,20,0.00,0,,334
2013-2-21,28,20,11,24,18,7,92,83,73,30.40,30.15,29.92,10,6,0,29,14,36,0.11,5,Fog-Snow,81
2013-2-22,31,27,23,27,23,19,100,88,75,29.98,29.86,29.77,7,3,0,23,13,28,0.04,8,Fog-Snow,182
2013-2-23,27,20,12,19,16,12,88,78,68,30.02,29.98,29.94,10,8,4,18,10,22,T,4,,261
2013-2-24,36,22,7,25,14,4,100,78,56,30.14,30.07,29.99,7,3,0,9,4,14,0.00,0,Fog,128
2013-2-25,38,29,19,29,23,17,92,78,64,30.15,30.09,29.92,6,4,1,20,9,25,0.00,2,,78
2013-2-26,35,33,30,30,28,26,92,81,70,29.90,29.65,29.56,8,3,0,30,21,36,0.29,8,Fog-Rain-Snow,30
2013-2-27,32,31,29,29,28,26,92,89,85,29.85,29.71,29.64,8,3,0,20,14,24,0.15,8,Fog-Rain-Snow,336
2013-2-28,34,32,29,28,28,27,92,84,75,30.12,30.01,29.83,10,5,2,16,11,18,0.02,8,Snow,336